BAW84C EDDF-EDDP
Flight info
| Callsign | BAW84C |
|---|---|
| Flight time | 0h 44m |
| Altitude | 23000 |
| Route | SULUS4D SULUS Z12 LASGA/N0396F220 T953 VOCIM/N0390F210 T954 GOXLI GOXLI1R |
| Aircraft | A320/M-SDE3FGIJ1KRWXY/SB1 |
Departure
| Time | 2026-04-16 13:54 |
|---|---|
| Airport | Frankfurt Main Airport (EDDF) |
Arrival
| Time | 2026-04-16 14:38 |
|---|---|
| Airport | Leipzig/Halle Airport (EDDP) |
| Time | Latitude | Longitude | Altitude | Speed | Heading |
|---|---|---|---|---|---|
| 2026-04-16 13:26 | 50.05000 | 8.58429 | 360 ft | 0 kts | 340° |
| 2026-04-16 13:36 | 50.04999 | 8.58429 | 359 ft | 0 kts | 340° |
| 2026-04-16 13:40 | 50.04985 | 8.58437 | 362 ft | 4 kts | 340° |
| 2026-04-16 13:41 | 50.04960 | 8.58452 | 363 ft | 4 kts | 339° |
| 2026-04-16 13:41 | 50.04936 | 8.58463 | 363 ft | 4 kts | 7° |
| 2026-04-16 13:41 | 50.04919 | 8.58445 | 359 ft | 4 kts | 68° |
| 2026-04-16 13:41 | 50.04911 | 8.58414 | 361 ft | 0 kts | 70° |
| 2026-04-16 13:48 | 50.04912 | 8.58415 | 361 ft | 1 kts | 70° |
| 2026-04-16 13:48 | 50.04914 | 8.58425 | 362 ft | 2 kts | 70° |
| 2026-04-16 13:49 | 50.04923 | 8.58461 | 366 ft | 6 kts | 70° |
| 2026-04-16 13:49 | 50.04941 | 8.58540 | 361 ft | 10 kts | 70° |
| 2026-04-16 13:49 | 50.04934 | 8.58647 | 365 ft | 11 kts | 136° |
| 2026-04-16 13:49 | 50.04865 | 8.58695 | 362 ft | 10 kts | 159° |
| 2026-04-16 13:50 | 50.04797 | 8.58734 | 368 ft | 11 kts | 159° |
| 2026-04-16 13:50 | 50.04722 | 8.58769 | 372 ft | 12 kts | 174° |
| 2026-04-16 13:50 | 50.04647 | 8.58759 | 370 ft | 7 kts | 187° |
| 2026-04-16 13:50 | 50.04634 | 8.58756 | 370 ft | 0 kts | 189° |
| 2026-04-16 13:52 | 50.04627 | 8.58754 | 370 ft | 3 kts | 190° |
| 2026-04-16 13:53 | 50.04590 | 8.58722 | 371 ft | 9 kts | 217° |
| 2026-04-16 13:53 | 50.04526 | 8.58646 | 371 ft | 14 kts | 218° |
| 2026-04-16 13:53 | 50.04475 | 8.58537 | 370 ft | 9 kts | 248° |
| 2026-04-16 13:53 | 50.04449 | 8.58433 | 373 ft | 13 kts | 249° |
| 2026-04-16 13:54 | 50.04387 | 8.58172 | 369 ft | 52 kts | 250° |
| 2026-04-16 13:54 | 50.04184 | 8.57331 | 365 ft | 111 kts | 249° |
| 2026-04-16 13:54 | 50.03859 | 8.55971 | 359 ft | 156 kts | 249° |
| 2026-04-16 13:54 | 50.03482 | 8.54396 | 967 ft | 152 kts | 248° |
| 2026-04-16 13:55 | 50.03109 | 8.52852 | 1634 ft | 156 kts | 249° |
| 2026-04-16 13:55 | 50.02654 | 8.51203 | 2057 ft | 176 kts | 234° |
| 2026-04-16 13:55 | 50.01567 | 8.50197 | 2420 ft | 198 kts | 197° |
| 2026-04-16 13:55 | 50.00177 | 8.49515 | 2745 ft | 219 kts | 198° |
| 2026-04-16 13:56 | 49.98682 | 8.49240 | 3565 ft | 220 kts | 173° |
| 2026-04-16 13:56 | 49.97332 | 8.50337 | 4295 ft | 228 kts | 131° |
| 2026-04-16 13:56 | 49.96515 | 8.52481 | 4863 ft | 236 kts | 118° |
| 2026-04-16 13:56 | 49.95740 | 8.54823 | 5053 ft | 256 kts | 118° |
| 2026-04-16 13:57 | 49.94878 | 8.57359 | 5549 ft | 273 kts | 119° |
| 2026-04-16 13:57 | 49.94169 | 8.60150 | 6317 ft | 281 kts | 103° |
| 2026-04-16 13:57 | 49.93972 | 8.63166 | 7107 ft | 285 kts | 93° |
| 2026-04-16 13:58 | 49.93093 | 8.69164 | 8678 ft | 291 kts | 122° |
| 2026-04-16 13:58 | 49.91828 | 8.71600 | 9470 ft | 291 kts | 140° |
| 2026-04-16 13:58 | 49.90199 | 8.73481 | 10246 ft | 293 kts | 146° |
| 2026-04-16 13:58 | 49.88641 | 8.75581 | 10806 ft | 306 kts | 134° |
| 2026-04-16 13:59 | 49.87353 | 8.78368 | 10979 ft | 331 kts | 120° |
| 2026-04-16 13:59 | 49.86210 | 8.81595 | 11193 ft | 350 kts | 120° |
| 2026-04-16 13:59 | 49.85018 | 8.84941 | 11711 ft | 358 kts | 120° |
| 2026-04-16 13:59 | 49.83798 | 8.88338 | 12317 ft | 363 kts | 120° |
| 2026-04-16 14:00 | 49.82551 | 8.91783 | 12917 ft | 369 kts | 120° |
| 2026-04-16 14:00 | 49.81284 | 8.95268 | 13518 ft | 374 kts | 120° |
| 2026-04-16 14:00 | 49.79996 | 8.98797 | 14100 ft | 379 kts | 120° |
| 2026-04-16 14:00 | 49.78688 | 9.02371 | 14630 ft | 384 kts | 120° |
| 2026-04-16 14:01 | 49.77369 | 9.05980 | 15202 ft | 387 kts | 120° |
| 2026-04-16 14:01 | 49.76211 | 9.09761 | 15741 ft | 391 kts | 110° |
| 2026-04-16 14:01 | 49.75468 | 9.13820 | 16275 ft | 394 kts | 103° |
| 2026-04-16 14:01 | 49.74816 | 9.17956 | 16806 ft | 398 kts | 103° |
| 2026-04-16 14:02 | 49.74150 | 9.22118 | 17348 ft | 401 kts | 104° |
| 2026-04-16 14:02 | 49.73469 | 9.26320 | 17885 ft | 405 kts | 104° |
| 2026-04-16 14:02 | 49.72776 | 9.30558 | 18441 ft | 408 kts | 104° |
| 2026-04-16 14:02 | 49.72075 | 9.34832 | 18916 ft | 412 kts | 104° |
| 2026-04-16 14:03 | 49.71370 | 9.39131 | 19407 ft | 415 kts | 104° |
| 2026-04-16 14:03 | 49.70661 | 9.43476 | 19885 ft | 419 kts | 104° |
| 2026-04-16 14:03 | 49.69944 | 9.47860 | 20359 ft | 422 kts | 104° |
| 2026-04-16 14:03 | 49.69220 | 9.52274 | 20835 ft | 426 kts | 104° |
| 2026-04-16 14:04 | 49.68487 | 9.56718 | 21295 ft | 429 kts | 104° |
| 2026-04-16 14:04 | 49.67785 | 9.61133 | 21735 ft | 432 kts | 101° |
| 2026-04-16 14:04 | 49.67451 | 9.65751 | 22152 ft | 434 kts | 90° |
| 2026-04-16 14:04 | 49.67629 | 9.70405 | 22586 ft | 435 kts | 79° |
| 2026-04-16 14:05 | 49.68293 | 9.74965 | 23009 ft | 436 kts | 72° |
| 2026-04-16 14:05 | 49.69111 | 9.79488 | 23205 ft | 439 kts | 72° |
| 2026-04-16 14:05 | 49.69922 | 9.84064 | 23231 ft | 443 kts | 72° |
| 2026-04-16 14:05 | 49.70722 | 9.88663 | 23228 ft | 444 kts | 73° |
| 2026-04-16 14:06 | 49.71674 | 9.93186 | 23228 ft | 442 kts | 65° |
| 2026-04-16 14:06 | 49.73056 | 9.97401 | 23225 ft | 438 kts | 55° |
| 2026-04-16 14:06 | 49.74786 | 10.01256 | 23223 ft | 436 kts | 51° |
| 2026-04-16 14:06 | 49.76559 | 10.05058 | 23242 ft | 436 kts | 51° |
| 2026-04-16 14:07 | 49.77753 | 10.07628 | 23219 ft | 435 kts | 51° |
| 2026-04-16 14:07 | 49.79514 | 10.11431 | 23223 ft | 435 kts | 51° |
| 2026-04-16 14:07 | 49.81269 | 10.15245 | 23222 ft | 435 kts | 51° |
| 2026-04-16 14:07 | 49.83021 | 10.19060 | 23223 ft | 435 kts | 51° |
| 2026-04-16 14:08 | 49.84775 | 10.22882 | 23227 ft | 435 kts | 51° |
| 2026-04-16 14:08 | 49.86506 | 10.26656 | 23231 ft | 435 kts | 51° |
| 2026-04-16 14:08 | 49.88259 | 10.30479 | 23233 ft | 435 kts | 51° |
| 2026-04-16 14:08 | 49.90015 | 10.34307 | 23234 ft | 435 kts | 51° |
| 2026-04-16 14:09 | 49.91766 | 10.38137 | 23236 ft | 435 kts | 51° |
| 2026-04-16 14:09 | 49.93541 | 10.42022 | 23236 ft | 435 kts | 51° |
| 2026-04-16 14:09 | 49.95266 | 10.45808 | 23244 ft | 435 kts | 51° |
| 2026-04-16 14:09 | 49.97036 | 10.49700 | 23241 ft | 436 kts | 51° |
| 2026-04-16 14:10 | 49.98756 | 10.53495 | 23238 ft | 436 kts | 51° |
| 2026-04-16 14:10 | 50.00524 | 10.57397 | 23234 ft | 436 kts | 51° |
| 2026-04-16 14:10 | 50.02272 | 10.61247 | 23234 ft | 436 kts | 51° |
| 2026-04-16 14:10 | 50.04020 | 10.65103 | 23233 ft | 436 kts | 51° |
| 2026-04-16 14:11 | 50.05764 | 10.68960 | 23230 ft | 436 kts | 51° |
| 2026-04-16 14:11 | 50.07532 | 10.72794 | 23228 ft | 435 kts | 47° |
| 2026-04-16 14:11 | 50.09509 | 10.76323 | 23228 ft | 432 kts | 44° |
| 2026-04-16 14:11 | 50.11523 | 10.79814 | 23227 ft | 433 kts | 44° |
| 2026-04-16 14:12 | 50.13531 | 10.83299 | 23231 ft | 433 kts | 44° |
| 2026-04-16 14:12 | 50.15540 | 10.86802 | 23248 ft | 433 kts | 44° |
| 2026-04-16 14:12 | 50.17544 | 10.90307 | 23235 ft | 433 kts | 44° |
| 2026-04-16 14:12 | 50.19549 | 10.93817 | 23233 ft | 433 kts | 44° |
| 2026-04-16 14:13 | 50.21556 | 10.97328 | 23237 ft | 433 kts | 44° |
| 2026-04-16 14:13 | 50.23567 | 11.00834 | 23231 ft | 433 kts | 43° |
| 2026-04-16 14:13 | 50.25780 | 11.03950 | 23237 ft | 425 kts | 29° |
| 2026-04-16 14:13 | 50.28378 | 11.06020 | 23230 ft | 416 kts | 16° |
| 2026-04-16 14:14 | 50.31047 | 11.07602 | 23235 ft | 416 kts | 15° |
| 2026-04-16 14:14 | 50.33790 | 11.09222 | 23225 ft | 416 kts | 15° |
| 2026-04-16 14:14 | 50.36498 | 11.10822 | 23245 ft | 416 kts | 15° |
| 2026-04-16 14:14 | 50.39209 | 11.12426 | 23241 ft | 416 kts | 15° |
| 2026-04-16 14:15 | 50.41917 | 11.14036 | 23241 ft | 417 kts | 15° |
| 2026-04-16 14:15 | 50.44592 | 11.15629 | 23239 ft | 417 kts | 15° |
| 2026-04-16 14:15 | 50.47300 | 11.17239 | 23233 ft | 417 kts | 15° |
| 2026-04-16 14:15 | 50.50014 | 11.18848 | 23240 ft | 416 kts | 15° |
| 2026-04-16 14:16 | 50.52723 | 11.20456 | 23226 ft | 416 kts | 15° |
| 2026-04-16 14:16 | 50.55430 | 11.22069 | 23226 ft | 416 kts | 15° |
| 2026-04-16 14:16 | 50.58134 | 11.23691 | 23231 ft | 416 kts | 15° |
| 2026-04-16 14:16 | 50.60834 | 11.25311 | 23225 ft | 415 kts | 15° |
| 2026-04-16 14:17 | 50.63536 | 11.26932 | 23232 ft | 415 kts | 15° |
| 2026-04-16 14:17 | 50.66233 | 11.28548 | 23229 ft | 415 kts | 15° |
| 2026-04-16 14:17 | 50.68933 | 11.30167 | 23226 ft | 415 kts | 15° |
| 2026-04-16 14:17 | 50.71629 | 11.31786 | 23230 ft | 415 kts | 15° |
| 2026-04-16 14:18 | 50.74326 | 11.33411 | 23228 ft | 415 kts | 15° |
| 2026-04-16 14:18 | 50.77022 | 11.35040 | 23225 ft | 415 kts | 15° |
| 2026-04-16 14:18 | 50.79718 | 11.36669 | 23246 ft | 415 kts | 15° |
| 2026-04-16 14:18 | 50.82413 | 11.38297 | 23239 ft | 415 kts | 15° |
| 2026-04-16 14:19 | 50.85111 | 11.39925 | 23230 ft | 415 kts | 15° |
| 2026-04-16 14:19 | 50.87812 | 11.41561 | 23225 ft | 415 kts | 15° |
| 2026-04-16 14:19 | 50.90506 | 11.43196 | 23221 ft | 415 kts | 15° |
| 2026-04-16 14:19 | 50.93203 | 11.44836 | 23221 ft | 415 kts | 15° |
| 2026-04-16 14:20 | 50.95897 | 11.46469 | 23219 ft | 415 kts | 15° |
| 2026-04-16 14:20 | 50.98601 | 11.48108 | 23215 ft | 415 kts | 15° |
| 2026-04-16 14:20 | 51.01297 | 11.49749 | 23236 ft | 415 kts | 15° |
| 2026-04-16 14:20 | 51.03993 | 11.51400 | 23230 ft | 415 kts | 15° |
| 2026-04-16 14:21 | 51.06677 | 11.53116 | 23218 ft | 418 kts | 20° |
| 2026-04-16 14:21 | 51.09196 | 11.55477 | 23142 ft | 421 kts | 31° |
| 2026-04-16 14:21 | 51.11391 | 11.58511 | 22864 ft | 417 kts | 42° |
| 2026-04-16 14:21 | 51.13183 | 11.62118 | 22597 ft | 415 kts | 53° |
| 2026-04-16 14:22 | 51.14581 | 11.66115 | 22205 ft | 412 kts | 58° |
| 2026-04-16 14:22 | 51.15899 | 11.70146 | 21718 ft | 409 kts | 59° |
| 2026-04-16 14:22 | 51.17209 | 11.74158 | 21225 ft | 407 kts | 59° |
| 2026-04-16 14:22 | 51.18511 | 11.78149 | 20734 ft | 404 kts | 59° |
| 2026-04-16 14:23 | 51.19804 | 11.82119 | 20224 ft | 403 kts | 59° |
| 2026-04-16 14:23 | 51.21093 | 11.86077 | 19732 ft | 401 kts | 59° |
| 2026-04-16 14:23 | 51.22313 | 11.90064 | 19215 ft | 401 kts | 66° |
| 2026-04-16 14:23 | 51.23107 | 11.94326 | 18721 ft | 401 kts | 77° |
| 2026-04-16 14:24 | 51.23430 | 11.98739 | 18185 ft | 400 kts | 84° |
| 2026-04-16 14:24 | 51.23639 | 12.03148 | 17665 ft | 396 kts | 84° |
| 2026-04-16 14:24 | 51.23846 | 12.07509 | 17174 ft | 392 kts | 84° |
| 2026-04-16 14:24 | 51.24053 | 12.11824 | 16685 ft | 388 kts | 84° |
| 2026-04-16 14:25 | 51.24259 | 12.16097 | 16194 ft | 385 kts | 84° |
| 2026-04-16 14:25 | 51.24459 | 12.20333 | 15707 ft | 381 kts | 84° |
| 2026-04-16 14:25 | 51.24655 | 12.24538 | 15223 ft | 378 kts | 85° |
| 2026-04-16 14:25 | 51.24849 | 12.28706 | 14746 ft | 375 kts | 85° |
| 2026-04-16 14:26 | 51.25039 | 12.32842 | 14262 ft | 373 kts | 85° |
| 2026-04-16 14:26 | 51.25355 | 12.36924 | 13749 ft | 368 kts | 76° |
| 2026-04-16 14:26 | 51.26136 | 12.40775 | 13258 ft | 362 kts | 65° |
| 2026-04-16 14:26 | 51.27137 | 12.44435 | 12792 ft | 357 kts | 64° |
| 2026-04-16 14:27 | 51.28120 | 12.48053 | 12329 ft | 353 kts | 65° |
| 2026-04-16 14:27 | 51.29090 | 12.51636 | 11851 ft | 350 kts | 64° |
| 2026-04-16 14:27 | 51.30049 | 12.55199 | 11398 ft | 347 kts | 64° |
| 2026-04-16 14:27 | 51.30933 | 12.58778 | 10931 ft | 347 kts | 71° |
| 2026-04-16 14:28 | 51.31376 | 12.62554 | 10573 ft | 344 kts | 84° |
| 2026-04-16 14:28 | 51.31521 | 12.66310 | 10448 ft | 333 kts | 84° |
| 2026-04-16 14:28 | 51.31673 | 12.69943 | 10324 ft | 323 kts | 84° |
| 2026-04-16 14:28 | 51.31826 | 12.73448 | 10175 ft | 308 kts | 84° |
| 2026-04-16 14:29 | 51.31975 | 12.76872 | 9638 ft | 301 kts | 84° |
| 2026-04-16 14:29 | 51.32204 | 12.80122 | 9231 ft | 295 kts | 72° |
| 2026-04-16 14:29 | 51.33030 | 12.83081 | 8866 ft | 283 kts | 51° |
| 2026-04-16 14:29 | 51.34389 | 12.85239 | 8388 ft | 278 kts | 30° |
| 2026-04-16 14:30 | 51.36128 | 12.86469 | 8071 ft | 271 kts | 10° |
| 2026-04-16 14:30 | 51.37985 | 12.86655 | 7739 ft | 267 kts | 351° |
| 2026-04-16 14:30 | 51.39767 | 12.85813 | 7406 ft | 263 kts | 331° |
| 2026-04-16 14:30 | 51.41214 | 12.84125 | 7091 ft | 261 kts | 313° |
| 2026-04-16 14:31 | 51.42425 | 12.81959 | 6756 ft | 261 kts | 306° |
| 2026-04-16 14:31 | 51.43276 | 12.79407 | 6433 ft | 260 kts | 289° |
| 2026-04-16 14:31 | 51.43607 | 12.76563 | 6096 ft | 261 kts | 272° |
| 2026-04-16 14:31 | 51.43510 | 12.73672 | 5845 ft | 258 kts | 267° |
| 2026-04-16 14:32 | 51.43393 | 12.70852 | 5716 ft | 250 kts | 268° |
| 2026-04-16 14:32 | 51.43277 | 12.68087 | 5587 ft | 242 kts | 267° |
| 2026-04-16 14:32 | 51.43165 | 12.65419 | 5324 ft | 239 kts | 267° |
| 2026-04-16 14:32 | 51.43051 | 12.62768 | 5013 ft | 236 kts | 267° |
| 2026-04-16 14:33 | 51.42940 | 12.60182 | 4699 ft | 228 kts | 267° |
| 2026-04-16 14:33 | 51.42832 | 12.57688 | 4398 ft | 223 kts | 267° |
| 2026-04-16 14:33 | 51.42725 | 12.55217 | 4100 ft | 222 kts | 267° |
| 2026-04-16 14:33 | 51.42618 | 12.52743 | 3800 ft | 223 kts | 267° |
| 2026-04-16 14:34 | 51.42510 | 12.50281 | 3490 ft | 218 kts | 267° |
| 2026-04-16 14:34 | 51.42405 | 12.47905 | 3210 ft | 210 kts | 266° |
| 2026-04-16 14:34 | 51.42304 | 12.45619 | 2935 ft | 202 kts | 267° |
| 2026-04-16 14:34 | 51.42205 | 12.43401 | 2690 ft | 196 kts | 266° |
| 2026-04-16 14:35 | 51.42109 | 12.41256 | 2413 ft | 191 kts | 266° |
| 2026-04-16 14:35 | 51.42015 | 12.39159 | 2153 ft | 187 kts | 267° |
| 2026-04-16 14:35 | 51.41924 | 12.37127 | 1896 ft | 177 kts | 267° |
| 2026-04-16 14:35 | 51.41839 | 12.35251 | 1686 ft | 159 kts | 266° |
| 2026-04-16 14:36 | 51.41763 | 12.33575 | 1467 ft | 146 kts | 267° |
| 2026-04-16 14:36 | 51.41690 | 12.31972 | 1291 ft | 142 kts | 266° |
| 2026-04-16 14:36 | 51.41617 | 12.30402 | 1082 ft | 140 kts | 268° |
| 2026-04-16 14:36 | 51.41548 | 12.28842 | 899 ft | 140 kts | 268° |
| 2026-04-16 14:37 | 51.41480 | 12.27264 | 727 ft | 143 kts | 269° |
| 2026-04-16 14:37 | 51.41407 | 12.25677 | 548 ft | 143 kts | 268° |
| 2026-04-16 14:37 | 51.41340 | 12.24189 | 476 ft | 114 kts | 263° |
| 2026-04-16 14:37 | 51.41290 | 12.23193 | 467 ft | 67 kts | 265° |
| 2026-04-16 14:38 | 51.41257 | 12.22480 | 462 ft | 61 kts | 265° |
| 2026-04-16 14:38 | 51.41230 | 12.21829 | 456 ft | 56 kts | 265° |
| 2026-04-16 14:38 | 51.41198 | 12.21226 | 448 ft | 52 kts | 265° |
| 2026-04-16 14:38 | 51.41176 | 12.20793 | 437 ft | 29 kts | 265° |
| 2026-04-16 14:39 | 51.41172 | 12.20577 | 434 ft | 18 kts | 280° |
| 2026-04-16 14:39 | 51.41235 | 12.20562 | 430 ft | 9 kts | 15° |
| 2026-04-16 14:39 | 51.41296 | 12.20588 | 442 ft | 9 kts | 15° |
| 2026-04-16 14:39 | 51.41370 | 12.20619 | 426 ft | 13 kts | 14° |
| 2026-04-16 14:40 | 51.41479 | 12.20665 | 429 ft | 19 kts | 15° |
| 2026-04-16 14:40 | 51.41624 | 12.20730 | 425 ft | 24 kts | 16° |
| 2026-04-16 14:40 | 51.41802 | 12.20811 | 425 ft | 29 kts | 15° |
| 2026-04-16 14:40 | 51.41938 | 12.20870 | 425 ft | 16 kts | 16° |
| 2026-04-16 14:41 | 51.41987 | 12.20981 | 423 ft | 13 kts | 103° |
| 2026-04-16 14:41 | 51.41963 | 12.21117 | 421 ft | 12 kts | 105° |
| 2026-04-16 14:41 | 51.41941 | 12.21248 | 432 ft | 12 kts | 105° |
| 2026-04-16 14:41 | 51.41919 | 12.21375 | 423 ft | 12 kts | 105° |
| 2026-04-16 14:42 | 51.41897 | 12.21499 | 437 ft | 12 kts | 105° |
| 2026-04-16 14:42 | 51.41871 | 12.21654 | 437 ft | 17 kts | 105° |
| 2026-04-16 14:42 | 51.41844 | 12.21815 | 432 ft | 14 kts | 105° |
| 2026-04-16 14:42 | 51.41820 | 12.21951 | 424 ft | 11 kts | 105° |
| 2026-04-16 14:43 | 51.41824 | 12.21996 | 425 ft | 4 kts | 47° |
| 2026-04-16 14:43 | 51.41866 | 12.22014 | 428 ft | 6 kts | 14° |
| 2026-04-16 14:43 | 51.41894 | 12.22026 | 424 ft | 4 kts | 15° |
| 2026-04-16 14:43 | 51.41910 | 12.22033 | 429 ft | 1 kts | 15° |
| 2026-04-16 14:44 | 51.41915 | 12.22035 | 430 ft | 0 kts | 15° |